Latest Weather Observations for Horsham

IDV60801

Issued at 12:52 am EDT Friday 21 January 2022 (issued every 10 minutes, with the page automatically refreshed every 10 minutes)

About weather observations | Map of weather stations | Latest weather observations for VIC | Other Formats
Station Details ID: 079100 Name: HORSHAM AERODROME Lat: -36.67 Lon: 142.17 Height: 133.8 m
Data from the previous 72 hours. | See also: Recent months at Horsham
Date/Time
EDT
Temp
°C
App
Temp
°C
Dew
Point
°C
Rel
Hum
%
Delta-T
°C
Wind Press
QNH
hPa
Press
MSL
hPa
Rain since
9am
mm
Dir  Spd
km/h
Gust
km/h
Spd
kts
Gust
kts
21/12:30am 20.6 15.0 3.3 32 8.3 NE 22 24 12 13 1023.3 1022.8 0.0
21/12:00am 21.1 15.8 2.9 30 8.6 NE 20 24 11 13 1023.2 1022.7 0.0
 
Date/Time
EDT
Temp
°C
App
Temp
°C
Dew
Point
°C
Rel
Hum
%
Delta-T
°C
Wind Press
QNH
hPa
Press
MSL
hPa
Rain since
9am
mm
Dir  Spd
km/h
Gust
km/h
Spd
kts
Gust
kts
20/11:30pm 21.3 15.9 2.6 29 8.8 NE 20 24 11 13 1023.0 1022.5 0.0
20/11:00pm 20.5 15.3 2.3 30 8.5 NE 19 20 10 11 1022.7 1022.2 0.0
20/10:30pm 21.5 16.1 2.2 28 9.1 NE 20 22 11 12 1022.6 1022.1 0.0
20/10:00pm 22.6 17.4 2.7 27 9.5 NE 19 20 10 11 1022.3 1021.8 0.0
20/09:30pm 22.7 17.5 2.2 26 9.7 NE 19 20 10 11 1022.0 1021.5 0.0
20/09:00pm 24.6 19.8 2.7 24 10.6 NE 17 17 9 9 1021.7 1021.2 0.0
20/08:30pm 29.0 23.0 3.1 19 13.0 ENE 24 32 13 17 1021.5 1021.0 0.0
20/08:00pm 30.3 24.3 3.4 18 13.7 ENE 24 33 13 18 1021.1 1020.7 0.0
20/07:30pm 31.1 24.7 3.2 17 14.3 ENE 26 35 14 19 1020.8 1020.4 0.0
20/07:00pm 32.0 25.2 3.1 16 14.8 ENE 28 37 15 20 1020.7 1020.3 0.0
20/06:30pm 32.0 25.7 3.9 17 14.6 E 26 35 14 19 1020.6 1020.2 0.0
20/06:00pm 32.2 26.3 4.1 17 14.6 E 24 33 13 18 1020.8 1020.4 0.0
20/05:30pm 32.3 26.5 4.2 17 14.7 E 24 41 13 22 1021.0 1020.6 0.0
20/05:00pm 32.3 26.1 4.2 17 14.7 ENE 26 35 14 19 1021.5 1021.0 0.0
20/04:30pm 31.7 25.3 5.3 19 14.0 E 28 41 15 22 1021.9 1021.4 0.0
20/04:00pm 31.3 25.6 4.9 19 13.8 ENE 24 39 13 21 1022.3 1021.8 0.0
20/03:30pm 31.2 25.4 6.3 21 13.4 E 26 37 14 20 1022.9 1022.4 0.0
20/03:04pm 30.9 24.7 6.0 21 13.3 E 28 46 15 25 1023.1 1022.6 0.0
20/03:00pm 30.9 26.0 6.7 22 13.0 E 22 37 12 20 1023.1 1022.6 0.0
20/02:30pm 30.6 24.5 6.5 22 13.0 ENE 28 41 15 22 1023.4 1022.9 0.0
20/02:00pm 29.6 24.3 6.9 24 12.2 ENE 24 39 13 21 1023.8 1023.3 0.0
20/01:30pm 29.2 23.9 6.6 24 12.1 ENE 24 41 13 22 1024.2 1023.7 0.0
20/01:00pm 29.2 23.9 8.3 27 11.5 ENE 26 35 14 19 1024.6 1024.1 0.0
20/12:30pm 27.7 22.6 7.5 28 10.9 ENE 24 39 13 21 1024.9 1024.4 0.0
20/12:00pm 27.2 21.7 7.6 29 10.5 ENE 26 39 14 21 1025.1 1024.6 0.0
20/11:30am 25.7 20.1 7.3 31 9.8 NE 26 39 14 21 1025.6 1025.1 0.0
20/11:00am 25.4 19.2 8.0 33 9.3 NE 30 39 16 21 1025.9 1025.4 0.0
20/10:30am 24.8 18.3 8.3 35 8.9 NE 32 44 17 24 1026.1 1025.6 0.0
20/10:00am 23.7 17.3 8.6 38 8.1 NE 32 43 17 23 1026.1 1025.6 0.0
20/09:30am 22.8 16.4 9.2 42 7.4 NE 33 43 18 23 1026.4 1025.9 0.0
20/09:00am 21.4 15.3 9.6 47 6.3 ENE 32 39 17 21 1026.3 1025.8 0.0
20/08:30am 20.3 14.1 9.5 50 5.8 E 32 37 17 20 1026.2 1025.7 0.0
20/08:00am 18.9 14.0 9.9 56 4.8 E 26 32 14 17 1025.8 1025.3 0.0
20/07:30am 17.4 12.1 9.8 61 4.0 E 28 32 15 17 1025.6 1025.1 0.0
20/07:00am 16.3 12.1 9.9 66 3.4 E 22 30 12 16 1025.2 1024.7 0.0
20/06:30am 16.0 11.0 9.7 66 3.3 E 26 32 14 17 1024.4 1023.9 0.0
20/06:00am 16.3 11.3 9.7 65 3.5 E 26 32 14 17 1023.9 1023.4 0.0
20/05:30am 16.6 11.7 9.8 64 3.6 E 26 33 14 18 1023.5 1023.0 0.0
20/05:00am 17.0 12.0 9.7 62 3.8 E 26 32 14 17 1023.0 1022.5 0.0
20/04:30am 17.2 12.6 9.6 61 4.0 ESE 24 32 13 17 1022.7 1022.2 0.0
20/04:00am 17.9 12.5 9.5 58 4.4 E 28 33 15 18 1022.3 1021.8 0.0
20/03:30am 18.6 13.2 9.4 55 4.9 E 28 33 15 18 1022.4 1021.9 0.0
20/03:00am 19.0 12.8 9.5 54 5.0 ESE 32 39 17 21 1022.2 1021.7 0.0
20/02:30am 18.8 12.5 9.6 55 4.9 ESE 33 41 18 22 1022.3 1021.8 0.0
20/02:00am 19.0 12.3 9.8 55 4.9 ESE 35 43 19 23 1022.3 1021.8 0.0
20/01:30am 19.1 12.9 9.9 55 4.9 ESE 33 43 18 23 1022.3 1021.8 0.0
20/01:00am 19.4 12.7 9.6 53 5.2 ESE 35 46 19 25 1022.3 1021.8 0.0
20/12:30am 19.9 12.8 9.5 51 5.6 ESE 37 46 20 25 1022.0 1021.5 0.0
20/12:00am 20.6 12.7 9.5 49 5.9 ESE 41 54 22 29 1021.6 1021.1 0.0
 
Date/Time
EDT
Temp
°C
App
Temp
°C
Dew
Point
°C
Rel
Hum
%
Delta-T
°C
Wind Press
QNH
hPa
Press
MSL
hPa
Rain since
9am
mm
Dir  Spd
km/h
Gust
km/h
Spd
kts
Gust
kts
19/11:30pm 21.2 12.9 9.4 47 6.3 ESE 43 54 23 29 1021.4 1020.9 0.0
19/11:00pm 21.9 13.5 9.8 46 6.6 ESE 44 54 24 29 1021.2 1020.8 0.0
19/10:30pm 22.6 15.1 9.4 43 7.2 SE 39 48 21 26 1020.8 1020.4 0.0
19/10:00pm 23.2 16.0 9.2 41 7.6 SE 37 46 20 25 1020.3 1019.8 0.0
19/09:30pm 24.0 16.5 9.6 40 7.9 ESE 39 50 21 27 1019.9 1019.4 0.0
19/09:00pm 24.7 17.3 9.8 39 8.2 SE 39 50 21 27 1019.6 1019.1 0.0
19/08:43pm 25.4 17.7 10.1 38 8.5 SE 41 59 22 32 1019.3 1018.8 0.0
19/08:30pm 26.0 17.3 9.8 36 9.0 SE 46 59 25 32 1019.0 1018.5 0.0
19/08:00pm 28.1 19.9 10.3 33 10.1 SE 44 57 24 31 1018.4 1017.9 0.0
19/07:30pm 29.6 21.5 10.7 31 10.8 SE 44 56 24 30 1017.7 1017.2 0.0
19/07:18pm 30.6 24.3 11.1 30 11.3 ESE 35 54 19 29 1017.4 1016.9 0.0
19/07:00pm 32.6 27.3 10.0 25 13.0 E 28 43 15 23 1017.2 1016.7 0.0
19/06:40pm 32.3 27.1 10.4 26 12.7 ESE 28 46 15 25 1017.0 1016.5 0.0
19/06:30pm 32.7 27.8 10.1 25 13.0 E 26 35 14 19 1017.1 1016.6 0.0
19/06:00pm 33.0 27.8 10.4 25 13.1 ESE 28 43 15 23 1017.2 1016.7 0.0
19/05:30pm 32.6 28.8 11.2 27 12.5 E 22 39 12 21 1017.2 1016.7 0.0
19/05:00pm 33.0 28.0 10.9 26 12.9 E 28 41 15 22 1017.4 1016.9 0.0
19/04:40pm 34.0 29.2 11.8 26 13.2 ESE 28 56 15 30 1017.3 1016.8 0.0
19/04:30pm 30.9 25.8 11.8 31 11.2 E 30 43 16 23 1017.5 1017.0 0.0
19/04:02pm 32.5 28.0 12.7 30 11.9 ESE 28 46 15 25 1017.6 1017.1 0.0
19/04:00pm 31.8 26.9 12.6 31 11.4 ESE 30 46 16 25 1017.7 1017.2 0.0
19/03:30pm 30.7 25.6 10.6 29 11.6 E 28 41 15 22 1017.7 1017.2 0.0
19/03:00pm 32.0 27.2 11.7 28 11.9 ENE 28 39 15 21 1018.0 1017.5 0.0
19/02:32pm 31.3 26.5 11.7 30 11.5 E 28 46 15 25 1018.1 1017.6 0.0
19/02:30pm 32.1 27.0 11.8 29 12.0 E 30 46 16 25 1018.1 1017.6 0.0
19/02:25pm 32.3 28.1 12.5 30 11.8 E 26 46 14 25 1018.1 1017.6 0.0
19/02:00pm 30.9 26.1 11.8 31 11.2 ESE 28 43 15 23 1018.1 1017.6 0.0
19/01:47pm 31.2 26.7 12.5 31 11.1 ESE 28 46 15 25 1018.3 1017.8 0.0
19/01:30pm 29.6 25.4 11.2 32 10.6 E 24 41 13 22 1018.4 1017.9 0.0
19/01:07pm 30.2 25.4 11.7 32 10.8 ESE 28 46 15 25 1018.4 1017.9 0.0
19/01:00pm 29.1 23.9 11.6 33 10.1 ESE 30 41 16 22 1018.6 1018.1 0.0
19/12:30pm 27.9 22.7 11.5 36 9.5 ESE 30 43 16 23 1018.9 1018.4 0.0
19/12:00pm 26.9 21.0 10.6 36 9.2 SE 32 46 17 25 1019.1 1018.6 0.0
19/11:30am 25.0 19.4 11.6 43 7.6 ESE 32 43 17 23 1019.4 1018.9 0.0
19/11:00am 23.9 18.7 11.6 46 7.0 ESE 30 41 16 22 1019.6 1019.1 0.0
19/10:30am 22.9 17.1 11.6 49 6.4 SE 33 44 18 24 1019.5 1019.0 0.0
19/10:00am 22.1 16.3 11.5 51 5.9 ESE 33 44 18 24 1019.4 1018.9 0.0
19/09:30am 20.3 13.9 10.7 54 5.3 SE 35 43 19 23 1019.4 1018.9 0.0
19/09:00am 19.3 12.3 11.1 59 4.5 SE 39 50 21 27 1019.2 1018.7 0.0
19/08:30am 17.7 10.9 10.8 64 3.7 SE 37 46 20 25 1018.8 1018.3 0.0
19/08:08am 17.0 12.7 10.6 66 3.4 SE 24 46 13 25 1018.6 1018.1 0.0
19/08:00am 15.9 13.0 9.8 67 3.2 SSE 15 22 8 12 1018.7 1018.2 0.0
19/07:30am 13.2 10.5 8.9 75 2.2 S 13 15 7 8 1018.4 1017.9 0.0
19/07:00am 10.8 7.8 7.9 82 1.4 S 13 13 7 7 1018.2 1017.7 0.0
19/06:30am 9.5 5.9 6.9 84 1.2 S 15 15 8 8 1018.1 1017.6 0.0
19/06:00am 9.1 5.0 6.4 83 1.3 S 17 19 9 10 1017.9 1017.4 0.0
19/05:30am 10.4 6.1 7.1 80 1.6 SSE 19 24 10 13 1017.9 1017.4 0.0
19/05:00am 11.7 7.5 7.6 76 2.0 S 19 26 10 14 1017.8 1017.3 0.0
19/04:30am 11.7 7.8 7.2 74 2.2 SSE 17 20 9 11 1017.7 1017.2 0.0
19/04:00am 11.6 7.3 6.9 73 2.3 SSE 19 24 10 13 1017.8 1017.3 0.0
19/03:30am 11.5 8.0 7.2 75 2.1 SSE 15 20 8 11 1017.9 1017.4 0.0
19/03:00am 12.5 8.6 7.2 70 2.6 SSE 17 22 9 12 1017.8 1017.3 0.0
19/02:30am 12.8 9.0 7.5 70 2.6 SSE 17 20 9 11 1017.8 1017.3 0.0
19/02:00am 13.5 9.4 7.7 68 2.9 SSE 19 22 10 12 1018.0 1017.5 0.0
19/01:30am 14.1 9.4 7.9 66 3.1 SSE 22 26 12 14 1017.9 1017.4 0.0
19/01:00am 14.6 9.6 8.1 65 3.3 SSE 24 32 13 17 1017.9 1017.4 0.0
19/12:30am 14.9 10.2 7.7 62 3.6 SSE 22 30 12 16 1017.9 1017.4 0.0
19/12:00am 15.6 9.4 7.9 60 3.9 SSE 30 41 16 22 1017.5 1017.0 0.0
 
Date/Time
EDT
Temp
°C
App
Temp
°C
Dew
Point
°C
Rel
Hum
%
Delta-T
°C
Wind Press
QNH
hPa
Press
MSL
hPa
Rain since
9am
mm
Dir  Spd
km/h
Gust
km/h
Spd
kts
Gust
kts
18/11:30pm 16.0 10.1 7.7 58 4.2 SSE 28 39 15 21 1017.6 1017.1 0.0
18/11:00pm 16.5 10.6 7.7 56 4.4 SSE 28 35 15 19 1017.7 1017.2 0.0
18/10:30pm 17.2 12.1 7.5 53 4.9 SSE 24 33 13 18 1017.5 1017.0 0.0
18/10:00pm 17.8 11.5 7.5 51 5.2 SSE 30 35 16 19 1017.2 1016.7 0.0
18/09:30pm 18.6 12.0 7.7 49 5.6 SE 32 44 17 24 1017.1 1016.6 0.0
18/09:00pm 19.3 12.7 7.7 47 6.0 SE 32 43 17 23 1016.7 1016.2 0.0
18/08:30pm 20.2 12.6 7.6 44 6.5 SE 37 46 20 25 1016.2 1015.7 0.0
18/08:00pm 21.2 13.7 7.8 42 7.0 SE 37 44 20 24 1015.4 1014.9 0.0
18/07:30pm 22.7 16.1 7.7 38 7.9 SSE 32 41 17 22 1014.6 1014.1 0.0
18/07:00pm 24.1 17.2 7.3 34 8.8 SSE 33 44 18 24 1014.2 1013.7 0.0
18/06:30pm 24.2 17.8 6.9 33 9.0 S 30 43 16 23 1014.0 1013.5 0.0
18/06:00pm 24.6 18.9 6.8 32 9.3 SSE 26 41 14 22 1014.0 1013.5 0.0
18/05:30pm 24.9 18.9 7.1 32 9.4 SSE 28 43 15 23 1014.0 1013.5 0.0
18/05:13pm 25.5 19.6 7.6 32 9.5 SSE 28 50 15 27 1014.0 1013.5 0.0
18/05:00pm 26.1 20.7 8.1 32 9.7 SSE 26 35 14 19 1014.1 1013.6 0.0
18/04:30pm 25.1 19.4 6.8 31 9.6 SSE 26 43 14 23 1014.4 1013.9 0.0
18/04:00pm 25.2 20.2 6.4 30 9.8 SSE 22 35 12 19 1014.4 1013.9 0.0
18/03:30pm 25.4 19.6 6.1 29 10.0 S 26 35 14 19 1014.5 1014.0 0.0
18/03:00pm 26.6 21.5 6.1 27 10.7 S 22 35 12 19 1014.6 1014.1 0.0
18/02:30pm 25.2 20.1 5.9 29 10.0 S 22 35 12 19 1014.8 1014.3 0.0
18/02:00pm 25.3 20.6 6.0 29 10.0 SSE 20 33 11 18 1015.2 1014.7 0.0
18/01:30pm 23.3 18.0 5.2 31 9.1 SSE 22 33 12 18 1015.6 1015.1 0.0
18/01:00pm 23.0 17.4 5.4 32 8.9 SSE 24 35 13 19 1016.0 1015.5 0.0
18/12:30pm 22.3 16.7 5.3 33 8.5 SSE 24 37 13 20 1016.3 1015.8 0.0
18/12:00pm 21.5 16.4 5.8 36 7.9 S 22 35 12 19 1016.3 1015.8 0.0
18/11:30am 21.0 17.7 6.5 39 7.4 SSE 13 26 7 14 1016.4 1015.9 0.0
18/11:00am 19.6 17.4 7.7 46 6.1 SSW 9 17 5 9 1016.8 1016.3 0.0
18/10:30am 19.0 16.0 7.8 48 5.8 S 13 33 7 18 1016.7 1016.2 0.0
18/10:00am 18.1 14.7 7.8 51 5.3 SSE 15 22 8 12 1016.8 1016.3 0.0
18/09:30am 17.5 14.5 7.8 53 4.9 S 13 20 7 11 1016.5 1016.0 0.0
18/09:00am 16.5 13.2 8.2 58 4.2 SSE 15 20 8 11 1016.5 1016.0 0.0
18/08:30am 15.3 12.9 8.5 64 3.5 SSE 11 13 6 7 1016.4 1015.9 0.0
18/08:00am 14.3 11.5 8.5 68 2.9 S 13 17 7 9 1016.0 1015.5 0.0
18/07:30am 12.8 10.9 8.9 77 2.0 S 9 13 5 7 1015.7 1015.2 0.0
18/07:00am 10.6 8.0 7.7 82 1.4 SSW 11 11 6 6 1015.6 1015.1 0.0
18/06:30am 11.3 8.8 8.2 81 1.5 SSW 11 13 6 7 1015.5 1015.0 0.0
18/06:00am 8.9 5.9 6.0 82 1.3 S 11 13 6 7 1015.1 1014.6 0.0
18/05:30am 10.9 8.3 7.6 80 1.6 S 11 13 6 7 1014.7 1014.2 0.0
18/05:00am 11.5 8.5 7.8 78 1.8 S 13 15 7 8 1014.4 1013.9 0.0
18/04:30am 10.8 7.8 7.5 80 1.6 S 13 15 7 8 1014.1 1013.6 0.0
18/04:00am 11.6 8.9 7.3 75 2.1 S 11 11 6 6 1014.1 1013.6 0.0
18/03:30am 11.3 8.2 7.2 76 2.0 S 13 15 7 8 1014.0 1013.5 0.0
18/03:00am 12.5 9.0 7.4 71 2.5 S 15 17 8 9 1014.2 1013.7 0.0
18/02:30am 14.0 9.8 8.2 68 2.9 S 20 22 11 12 1014.5 1014.0 0.0
18/02:00am 13.9 9.8 7.9 67 3.0 S 19 20 10 11 1014.7 1014.2 0.0
18/01:30am 14.7 10.4 8.0 64 3.4 S 20 26 11 14 1014.8 1014.3 0.0
18/01:00am 15.2 10.6 8.2 63 3.5 SSW 22 28 12 15 1014.7 1014.2 0.0

Other formats

Comma delimited format used in spreadsheet applications
http://www.bom.gov.au/fwo/IDV60801/IDV60801.95839.axf

JavaScript Object Notation format (JSON) in row-major order
http://www.bom.gov.au/fwo/IDV60801/IDV60801.95839.json

Data quality

Most of these data are generated automatically and are frequently updated. Quality checks on data are not normally performed. It is possible for incorrect values to appear. Refer to information at About Latest Weather Observations and please check the disclaimer before using these data.